createdAt,value
2022-10-31T00:01:10.157Z,16.12
2022-10-31T00:03:37.094Z,16.10
2022-10-31T00:06:03.969Z,16.09
2022-10-31T00:08:31.796Z,16.06
2022-10-31T00:10:58.846Z,16.06
2022-10-31T00:13:25.691Z,16.05
2022-10-31T00:15:52.337Z,16.04
2022-10-31T00:18:19.461Z,16.02
2022-10-31T00:20:46.102Z,16.02
2022-10-31T00:23:12.838Z,15.99
2022-10-31T00:25:40.648Z,15.96
2022-10-31T00:28:08.338Z,15.92
2022-10-31T00:30:35.139Z,15.86
2022-10-31T00:33:03.997Z,15.87
2022-10-31T00:35:32.053Z,15.91
2022-10-31T00:37:59.052Z,15.88
2022-10-31T00:40:26.061Z,15.90
2022-10-31T00:42:53.469Z,15.89
2022-10-31T00:45:20.405Z,15.91
2022-10-31T00:47:48.022Z,15.92
2022-10-31T00:50:14.914Z,15.92
2022-10-31T00:52:41.714Z,15.94
2022-10-31T00:55:08.481Z,15.93
2022-10-31T00:57:35.568Z,15.95
2022-10-31T01:00:04.922Z,15.90
2022-10-31T01:02:31.753Z,15.88
2022-10-31T01:04:58.495Z,15.88
2022-10-31T01:07:25.381Z,15.86
2022-10-31T01:09:52.353Z,15.77
2022-10-31T01:12:20.118Z,15.78
2022-10-31T01:14:46.860Z,15.81
2022-10-31T01:17:14.392Z,15.84
2022-10-31T01:19:41.148Z,15.85
2022-10-31T01:22:08.145Z,15.81
2022-10-31T01:24:34.948Z,15.82
2022-10-31T01:27:02.588Z,15.84
2022-10-31T01:29:32.750Z,15.89
2022-10-31T01:31:59.875Z,15.87
2022-10-31T01:34:26.585Z,15.83
2022-10-31T01:36:53.511Z,15.81
2022-10-31T01:39:20.488Z,15.83
2022-10-31T01:41:48.817Z,15.83
2022-10-31T01:44:15.513Z,15.85
2022-10-31T01:47:11.833Z,15.87
2022-10-31T01:49:41.074Z,15.89
2022-10-31T01:52:17.508Z,15.90
2022-10-31T01:54:47.062Z,15.89
2022-10-31T01:57:15.653Z,15.89
2022-10-31T01:59:48.041Z,15.90
2022-10-31T02:02:16.195Z,15.89
2022-10-31T02:04:43.904Z,15.93
2022-10-31T02:07:13.389Z,15.91
2022-10-31T02:09:40.764Z,15.91
2022-10-31T02:12:09.486Z,15.88
2022-10-31T02:14:36.662Z,15.87
2022-10-31T02:17:04.040Z,15.85
2022-10-31T02:19:30.908Z,15.80
2022-10-31T02:22:03.924Z,15.78
2022-10-31T02:24:47.225Z,15.77
2022-10-31T02:27:23.317Z,15.71
2022-10-31T02:29:56.305Z,15.68
2022-10-31T02:32:31.048Z,15.60
2022-10-31T02:35:04.169Z,15.50
2022-10-31T02:37:37.791Z,15.48
2022-10-31T02:40:10.709Z,15.49
2022-10-31T02:43:04.607Z,15.45
2022-10-31T02:45:40.132Z,15.39
2022-10-31T02:48:10.818Z,15.35
2022-10-31T02:50:41.078Z,15.32
2022-10-31T02:53:10.076Z,15.33
2022-10-31T02:55:38.233Z,15.29
2022-10-31T02:58:11.103Z,15.25
2022-10-31T03:00:56.879Z,15.23
2022-10-31T03:03:24.492Z,15.22
2022-10-31T03:06:06.915Z,15.20
2022-10-31T03:08:36.913Z,15.17
2022-10-31T03:11:06.157Z,15.15
2022-10-31T03:13:33.550Z,15.14
2022-10-31T03:16:08.564Z,15.14
2022-10-31T03:18:38.941Z,15.14
2022-10-31T03:21:13.751Z,15.12
2022-10-31T03:23:41.553Z,15.10
2022-10-31T03:26:09.507Z,15.06
2022-10-31T03:28:42.101Z,15.03
2022-10-31T03:31:10.033Z,15.00
2022-10-31T03:33:41.472Z,14.99
2022-10-31T03:36:10.043Z,14.98
2022-10-31T03:38:38.168Z,14.91
2022-10-31T03:41:07.238Z,14.89
2022-10-31T03:43:38.458Z,14.87
2022-10-31T03:46:06.161Z,14.84
2022-10-31T03:48:33.552Z,14.84
2022-10-31T03:51:19.406Z,14.82
2022-10-31T03:53:49.596Z,14.78
2022-10-31T03:56:28.957Z,14.76
2022-10-31T03:58:56.106Z,14.71
2022-10-31T04:01:25.735Z,14.67
2022-10-31T04:03:53.019Z,14.64
2022-10-31T04:06:22.042Z,14.61
2022-10-31T04:08:53.889Z,14.57
2022-10-31T04:11:24.230Z,14.54
2022-10-31T04:14:12.298Z,14.52
2022-10-31T04:16:44.079Z,14.50
2022-10-31T04:19:12.933Z,14.47
2022-10-31T04:21:40.314Z,14.46
2022-10-31T04:24:07.146Z,14.42
2022-10-31T04:26:34.157Z,14.45
2022-10-31T04:29:00.891Z,14.46
2022-10-31T04:31:28.636Z,14.41
2022-10-31T04:33:55.561Z,14.42
2022-10-31T04:36:22.356Z,14.42
2022-10-31T04:38:49.122Z,14.40
2022-10-31T04:41:47.830Z,14.39
2022-10-31T04:44:15.418Z,14.40
2022-10-31T04:46:42.687Z,14.40
2022-10-31T04:49:10.678Z,14.37
2022-10-31T04:51:37.675Z,14.37
2022-10-31T04:54:04.888Z,14.39
2022-10-31T04:56:31.646Z,14.40
2022-10-31T04:59:06.598Z,14.41
2022-10-31T05:01:46.760Z,14.39
2022-10-31T05:04:13.890Z,14.36
2022-10-31T05:06:41.678Z,14.36
2022-10-31T05:09:09.037Z,14.34
2022-10-31T05:11:35.769Z,14.34
2022-10-31T05:14:17.536Z,14.34
2022-10-31T05:17:03.597Z,14.34
2022-10-31T05:19:53.106Z,14.34
2022-10-31T05:22:43.845Z,14.31
2022-10-31T05:25:12.253Z,14.30
2022-10-31T05:27:46.212Z,14.28
2022-10-31T05:30:14.979Z,14.30
2022-10-31T05:32:46.166Z,14.29
2022-10-31T05:35:36.062Z,14.26
2022-10-31T05:38:18.854Z,14.21
2022-10-31T05:40:45.869Z,14.18
2022-10-31T05:43:13.999Z,14.18
2022-10-31T05:45:40.986Z,14.17
2022-10-31T05:48:16.896Z,14.12
2022-10-31T05:51:02.874Z,14.09
2022-10-31T05:53:30.289Z,14.05
2022-10-31T05:55:56.968Z,14.01
2022-10-31T05:58:23.872Z,13.96
2022-10-31T06:00:59.973Z,13.94
2022-10-31T06:03:27.099Z,13.97
2022-10-31T06:05:56.378Z,13.96
2022-10-31T06:08:37.171Z,13.98
2022-10-31T06:11:11.967Z,13.94
2022-10-31T06:13:56.985Z,13.95
2022-10-31T06:16:29.838Z,13.96
2022-10-31T06:19:01.928Z,13.96
2022-10-31T06:21:28.913Z,13.97
2022-10-31T06:23:56.692Z,13.96
2022-10-31T06:26:36.720Z,13.95
2022-10-31T06:29:04.289Z,13.93
2022-10-31T06:32:03.475Z,13.95
2022-10-31T06:34:32.905Z,13.97
2022-10-31T06:37:00.114Z,13.96
2022-10-31T06:39:28.426Z,13.98
2022-10-31T06:41:55.125Z,13.95
2022-10-31T06:44:23.468Z,13.98
2022-10-31T06:46:50.226Z,13.97
2022-10-31T06:49:40.390Z,14.04
2022-10-31T06:52:13.842Z,14.08
2022-10-31T06:54:41.577Z,14.10
2022-10-31T06:57:08.938Z,14.14
2022-10-31T06:59:38.025Z,14.16
2022-10-31T07:02:20.297Z,14.19
2022-10-31T07:04:48.849Z,14.23
2022-10-31T07:07:17.787Z,14.26
2022-10-31T07:09:45.872Z,14.28
2022-10-31T07:12:16.717Z,14.26
2022-10-31T07:14:51.864Z,14.29
2022-10-31T07:17:18.674Z,14.35
2022-10-31T07:19:45.616Z,14.40
2022-10-31T07:22:15.938Z,14.43
2022-10-31T07:24:44.538Z,14.48
2022-10-31T07:27:37.630Z,14.51
2022-10-31T07:30:09.601Z,14.55
2022-10-31T07:32:40.479Z,14.59
2022-10-31T07:35:12.324Z,14.62
2022-10-31T07:37:53.533Z,14.61
2022-10-31T07:40:20.806Z,14.62
2022-10-31T07:42:48.817Z,14.70
2022-10-31T07:45:35.602Z,14.73
2022-10-31T07:48:21.625Z,14.77
2022-10-31T07:51:08.084Z,14.82
2022-10-31T07:53:57.955Z,14.84
2022-10-31T07:56:28.510Z,14.93
2022-10-31T07:58:55.527Z,14.98
2022-10-31T08:01:22.267Z,15.03
2022-10-31T08:04:07.317Z,15.10
2022-10-31T08:07:03.300Z,15.15
2022-10-31T08:09:35.172Z,15.21
2022-10-31T08:12:08.261Z,15.26
2022-10-31T08:14:36.263Z,15.27
2022-10-31T08:17:03.495Z,15.34
2022-10-31T08:19:40.407Z,15.39
2022-10-31T08:22:10.045Z,15.43
2022-10-31T08:24:37.201Z,15.45
2022-10-31T08:27:04.076Z,15.51
2022-10-31T08:29:33.067Z,15.56
2022-10-31T08:31:59.965Z,15.64
2022-10-31T08:34:59.518Z,15.73
2022-10-31T08:37:45.004Z,15.79
2022-10-31T08:40:12.255Z,15.84
2022-10-31T08:42:40.425Z,15.87
2022-10-31T08:45:07.800Z,15.91
2022-10-31T08:47:35.777Z,15.95
2022-10-31T08:50:02.765Z,15.97
2022-10-31T08:52:58.903Z,16.01
2022-10-31T08:55:17.016Z,16.05
2022-10-31T08:57:46.556Z,16.08
2022-10-31T09:00:13.914Z,16.14
2022-10-31T09:03:13.809Z,16.19
2022-10-31T09:05:43.803Z,16.21
2022-10-31T09:08:16.267Z,16.27
2022-10-31T09:10:46.338Z,16.33
2022-10-31T09:13:17.285Z,16.38
2022-10-31T09:16:03.083Z,16.52
2022-10-31T09:18:32.901Z,16.65
2022-10-31T09:21:01.450Z,16.72
2022-10-31T09:23:30.564Z,16.80
2022-10-31T09:25:59.971Z,16.86
2022-10-31T09:28:47.294Z,16.97
2022-10-31T09:31:16.023Z,17.04
2022-10-31T09:33:59.210Z,17.10
2022-10-31T09:36:39.106Z,17.19
2022-10-31T09:39:14.741Z,17.30
2022-10-31T09:41:56.253Z,17.43
2022-10-31T09:44:44.728Z,17.58
2022-10-31T09:47:20.837Z,17.62
2022-10-31T09:50:08.947Z,17.73
2022-10-31T09:52:37.706Z,17.81
2022-10-31T09:55:16.276Z,17.87
2022-10-31T09:57:43.622Z,17.89
2022-10-31T10:00:18.742Z,17.89
2022-10-31T10:03:03.816Z,17.90
2022-10-31T10:05:38.734Z,17.92
2022-10-31T10:08:34.363Z,17.99
2022-10-31T10:11:39.441Z,18.16
2022-10-31T10:14:16.585Z,18.26
2022-10-31T10:16:58.403Z,18.32
2022-10-31T10:19:51.266Z,18.38
2022-10-31T10:22:18.281Z,18.41
2022-10-31T10:24:48.109Z,18.02
2022-10-31T10:27:23.639Z,18.57
2022-10-31T10:30:03.097Z,18.60
2022-10-31T10:32:32.508Z,18.63
2022-10-31T10:35:25.740Z,18.63
2022-10-31T10:38:05.284Z,18.64
2022-10-31T10:40:32.383Z,18.65
2022-10-31T10:43:17.821Z,18.69
2022-10-31T10:46:09.225Z,18.75
2022-10-31T10:48:46.329Z,18.78
2022-10-31T10:51:47.006Z,18.87
2022-10-31T10:54:21.034Z,19.00
2022-10-31T10:57:11.249Z,19.07
2022-10-31T10:59:38.513Z,19.10
2022-10-31T11:02:16.673Z,19.09
2022-10-31T11:04:44.195Z,19.08
2022-10-31T11:07:11.778Z,19.11
2022-10-31T11:09:38.977Z,19.29
2022-10-31T11:12:18.146Z,19.42
2022-10-31T11:14:47.712Z,19.50
2022-10-31T11:17:28.258Z,19.56
2022-10-31T11:20:07.422Z,19.58
2022-10-31T11:22:34.679Z,19.65
2022-10-31T11:25:01.394Z,19.69
2022-10-31T11:27:29.281Z,19.75
2022-10-31T11:30:05.027Z,19.79
2022-10-31T11:32:31.939Z,19.88
2022-10-31T11:35:00.225Z,19.94
2022-10-31T11:37:28.546Z,19.96
2022-10-31T11:40:05.170Z,19.95
2022-10-31T11:42:42.469Z,19.96
2022-10-31T11:45:15.564Z,19.98
2022-10-31T11:47:51.368Z,20.03
2022-10-31T11:50:22.104Z,20.10
2022-10-31T11:52:49.951Z,20.14
2022-10-31T11:55:18.447Z,20.21
2022-10-31T11:57:49.908Z,20.28
2022-10-31T12:03:14.573Z,20.35
2022-10-31T12:05:42.664Z,20.39
2022-10-31T12:08:11.151Z,20.40
2022-10-31T12:10:45.899Z,20.42
2022-10-31T12:13:31.518Z,20.53
2022-10-31T12:16:18.577Z,20.52
2022-10-31T12:18:51.535Z,20.49
2022-10-31T12:21:57.319Z,20.57
2022-10-31T12:24:46.271Z,20.63
2022-10-31T12:27:27.850Z,20.71
2022-10-31T12:30:00.638Z,20.66
2022-10-31T12:32:29.942Z,20.67
2022-10-31T12:35:22.569Z,20.74
2022-10-31T12:38:01.917Z,20.79
2022-10-31T12:40:49.931Z,20.86
2022-10-31T12:43:37.832Z,20.86
2022-10-31T12:46:06.287Z,20.86
2022-10-31T12:48:40.367Z,20.83
2022-10-31T12:51:21.939Z,20.82
2022-10-31T12:53:57.778Z,20.76
2022-10-31T12:56:43.465Z,20.76
2022-10-31T12:59:30.380Z,20.89
2022-10-31T13:02:01.737Z,20.98
2022-10-31T13:04:37.217Z,21.04
2022-10-31T13:07:08.743Z,21.07
2022-10-31T13:09:41.633Z,21.09
2022-10-31T13:12:13.800Z,21.13
2022-10-31T13:14:43.960Z,21.15
2022-10-31T13:17:34.037Z,21.14
2022-10-31T13:20:16.311Z,21.20
2022-10-31T13:22:45.232Z,21.25
2022-10-31T13:25:17.269Z,21.24
2022-10-31T13:27:47.577Z,21.28
2022-10-31T13:30:19.261Z,21.30
2022-10-31T13:32:58.320Z,21.30
2022-10-31T13:35:25.673Z,21.27
2022-10-31T13:38:11.006Z,21.21
2022-10-31T13:40:43.624Z,21.17
2022-10-31T13:43:25.630Z,21.10
2022-10-31T13:45:53.837Z,21.06
2022-10-31T13:48:33.830Z,21.01
2022-10-31T13:51:03.217Z,20.96
2022-10-31T13:53:41.017Z,20.94
2022-10-31T13:56:10.750Z,20.93
2022-10-31T13:58:37.674Z,20.90
2022-10-31T14:01:13.780Z,20.89
2022-10-31T14:06:43.367Z,20.85
2022-10-31T14:09:26.010Z,20.83
2022-10-31T14:11:53.455Z,20.80
2022-10-31T14:14:21.157Z,20.79
2022-10-31T14:16:55.724Z,20.79
2022-10-31T14:19:23.384Z,20.77
2022-10-31T14:21:51.477Z,20.76
2022-10-31T14:24:25.583Z,20.75
2022-10-31T14:27:15.780Z,20.73
2022-10-31T14:29:47.896Z,20.71
2022-10-31T14:32:24.429Z,20.74
2022-10-31T14:34:51.329Z,20.73
2022-10-31T14:37:20.869Z,20.73
2022-10-31T14:39:59.745Z,20.69
2022-10-31T14:42:26.432Z,20.67
2022-10-31T14:45:03.479Z,20.64
2022-10-31T14:47:36.812Z,20.63
2022-10-31T14:50:22.708Z,20.59
2022-10-31T14:52:54.623Z,20.55
2022-10-31T14:55:21.873Z,20.52
2022-10-31T14:58:15.017Z,20.49
2022-10-31T15:00:44.093Z,20.48
2022-10-31T15:03:10.911Z,20.45
2022-10-31T15:05:46.274Z,20.42
2022-10-31T15:08:31.912Z,20.39
2022-10-31T15:10:58.875Z,20.33
2022-10-31T15:13:25.692Z,20.28
2022-10-31T15:15:55.203Z,20.22
2022-10-31T15:18:24.367Z,20.17
2022-10-31T15:20:51.414Z,20.13
2022-10-31T15:23:22.878Z,20.07
2022-10-31T15:25:49.783Z,20.01
2022-10-31T15:28:22.525Z,19.96
2022-10-31T15:30:54.222Z,19.92
2022-10-31T15:33:22.685Z,19.90
2022-10-31T15:35:56.861Z,19.83
2022-10-31T15:38:24.560Z,19.77
2022-10-31T15:40:57.315Z,19.72
2022-10-31T15:43:24.554Z,19.66
2022-10-31T15:45:51.801Z,19.69
2022-10-31T15:48:20.266Z,19.63
2022-10-31T15:50:56.121Z,19.57
2022-10-31T15:53:35.825Z,19.52
2022-10-31T15:56:04.931Z,19.47
2022-10-31T15:58:33.579Z,19.44
2022-10-31T16:01:01.841Z,19.39
2022-10-31T16:03:30.423Z,19.32
2022-10-31T16:06:01.689Z,19.28
2022-10-31T16:08:31.549Z,19.23
2022-10-31T16:11:01.634Z,19.18
2022-10-31T16:13:30.095Z,19.15
2022-10-31T16:16:21.200Z,19.11
2022-10-31T16:18:45.577Z,19.05
2022-10-31T16:21:12.716Z,19.00
2022-10-31T16:23:44.822Z,18.95
2022-10-31T16:26:17.942Z,18.90
2022-10-31T16:29:03.311Z,18.88
2022-10-31T16:31:38.107Z,18.83
2022-10-31T16:34:15.576Z,18.78
2022-10-31T16:36:42.917Z,18.75
2022-10-31T16:39:09.738Z,18.71
2022-10-31T16:41:39.301Z,18.67
2022-10-31T16:44:12.153Z,18.62
2022-10-31T16:46:39.302Z,18.60
2022-10-31T16:49:09.410Z,18.58
2022-10-31T16:51:36.273Z,18.56
2022-10-31T16:54:02.934Z,18.55
2022-10-31T16:56:32.468Z,18.52
2022-10-31T16:59:00.353Z,18.46
2022-10-31T17:01:27.132Z,18.40
2022-10-31T17:03:54.054Z,18.39
2022-10-31T17:06:20.740Z,18.36
2022-10-31T17:08:47.601Z,18.32
2022-10-31T17:11:22.338Z,18.30
2022-10-31T17:13:49.256Z,18.28
2022-10-31T17:16:16.163Z,18.26
2022-10-31T17:18:43.896Z,18.25
2022-10-31T17:21:12.842Z,18.23
2022-10-31T17:23:39.595Z,18.20
2022-10-31T17:26:08.833Z,18.18
2022-10-31T17:28:35.572Z,18.15
2022-10-31T17:31:02.516Z,18.11
2022-10-31T17:33:29.588Z,18.08
2022-10-31T17:35:56.445Z,18.07
2022-10-31T17:38:23.229Z,18.07
2022-10-31T17:40:50.199Z,18.02
2022-10-31T17:43:16.998Z,17.96
2022-10-31T17:45:43.793Z,17.93
2022-10-31T17:48:13.938Z,17.82
2022-10-31T17:50:41.738Z,17.71
2022-10-31T17:53:08.502Z,17.68
2022-10-31T17:55:37.241Z,17.68
2022-10-31T17:58:05.171Z,17.67
2022-10-31T18:00:31.994Z,17.68
2022-10-31T18:02:59.276Z,17.69
2022-10-31T18:05:26.315Z,17.65
2022-10-31T18:07:53.197Z,17.63
2022-10-31T18:10:20.069Z,17.56
2022-10-31T18:12:48.752Z,17.60
2022-10-31T18:15:16.288Z,17.55
2022-10-31T18:17:43.231Z,17.53
2022-10-31T18:20:10.256Z,17.51
2022-10-31T18:22:37.107Z,17.49
2022-10-31T18:25:04.509Z,17.47
2022-10-31T18:27:31.292Z,17.47
2022-10-31T18:29:58.039Z,17.47
2022-10-31T18:32:24.922Z,17.42
2022-10-31T18:34:51.630Z,17.42
2022-10-31T18:37:18.508Z,17.39
2022-10-31T18:39:46.140Z,17.36
2022-10-31T18:42:12.942Z,17.32
2022-10-31T18:44:39.699Z,17.28
2022-10-31T18:47:06.486Z,17.25
2022-10-31T18:49:33.688Z,17.21
2022-10-31T18:52:00.783Z,17.17
2022-10-31T18:54:27.566Z,17.14
2022-10-31T18:56:54.980Z,17.13
2022-10-31T18:59:22.212Z,17.10
2022-10-31T19:01:49.187Z,17.05
2022-10-31T19:04:16.169Z,17.01
2022-10-31T19:06:42.969Z,16.97
2022-10-31T19:09:09.824Z,16.96
2022-10-31T19:11:37.653Z,16.91
2022-10-31T19:14:05.553Z,16.89
2022-10-31T19:16:32.302Z,16.88
2022-10-31T19:19:00.124Z,16.85
2022-10-31T19:21:27.541Z,16.84
2022-10-31T19:23:56.329Z,16.78
2022-10-31T19:26:24.785Z,16.72
2022-10-31T19:28:51.610Z,16.74
2022-10-31T19:31:19.020Z,16.69
2022-10-31T19:33:46.001Z,16.67
2022-10-31T19:36:14.900Z,16.65
2022-10-31T19:38:42.887Z,16.61
2022-10-31T19:41:14.634Z,16.59
2022-10-31T19:43:41.995Z,15.20
2022-10-31T19:46:17.545Z,16.53
2022-10-31T19:48:49.592Z,16.49
2022-10-31T19:51:17.776Z,16.48
2022-10-31T19:53:44.605Z,16.47
2022-10-31T19:56:13.045Z,16.47
2022-10-31T19:58:40.156Z,16.43
2022-10-31T20:01:11.248Z,16.37
2022-10-31T20:03:39.046Z,16.35
2022-10-31T20:06:06.585Z,16.35
2022-10-31T20:08:39.453Z,16.32
2022-10-31T20:11:06.683Z,16.30
2022-10-31T20:13:33.789Z,16.24
2022-10-31T20:16:02.194Z,16.24
2022-10-31T20:18:29.991Z,16.20
2022-10-31T20:21:04.879Z,16.16
2022-10-31T20:23:32.571Z,16.15
2022-10-31T20:25:59.408Z,16.10
2022-10-31T20:28:26.597Z,16.08
2022-10-31T20:30:53.607Z,16.08
2022-10-31T20:33:20.460Z,16.07
2022-10-31T20:35:47.191Z,16.04
2022-10-31T20:38:14.013Z,16.01
2022-10-31T20:40:40.886Z,15.98
2022-10-31T20:43:07.834Z,15.93
2022-10-31T20:45:34.930Z,15.89
2022-10-31T20:48:01.918Z,15.88
2022-10-31T20:50:29.179Z,15.84
2022-10-31T20:52:56.650Z,15.83
2022-10-31T20:55:23.699Z,15.80
2022-10-31T20:57:50.491Z,15.79
2022-10-31T21:00:17.654Z,15.75
2022-10-31T21:02:44.555Z,15.69
2022-10-31T21:05:12.080Z,15.62
2022-10-31T21:07:39.421Z,15.66
2022-10-31T21:10:14.978Z,15.63
2022-10-31T21:12:45.178Z,15.57
2022-10-31T21:15:13.676Z,15.58
2022-10-31T21:17:41.727Z,15.55
2022-10-31T21:20:10.074Z,15.54
2022-10-31T21:22:37.518Z,15.50
2022-10-31T21:25:04.603Z,15.47
2022-10-31T21:27:31.443Z,15.46
2022-10-31T21:29:58.367Z,15.48
2022-10-31T21:32:25.189Z,15.44
2022-10-31T21:34:51.988Z,15.41
2022-10-31T21:37:18.757Z,15.36
2022-10-31T21:39:50.437Z,15.32
2022-10-31T21:42:21.335Z,15.28
2022-10-31T21:44:49.398Z,15.28
2022-10-31T21:47:16.198Z,15.24
2022-10-31T21:49:43.253Z,15.24
2022-10-31T21:52:10.399Z,15.20
2022-10-31T21:54:37.668Z,15.17
2022-10-31T21:57:04.470Z,15.15
2022-10-31T21:59:31.188Z,15.14
2022-10-31T22:01:59.749Z,15.14
2022-10-31T22:04:27.456Z,15.10
2022-10-31T22:06:54.280Z,15.15
2022-10-31T22:09:23.246Z,15.09
2022-10-31T22:11:50.875Z,15.06
2022-10-31T22:14:17.630Z,15.03
2022-10-31T22:16:44.609Z,15.01
2022-10-31T22:19:12.530Z,14.98
2022-10-31T22:21:49.092Z,14.98
2022-10-31T22:24:16.815Z,14.96
2022-10-31T22:26:43.750Z,14.90
2022-10-31T22:29:11.777Z,14.90
2022-10-31T22:31:40.193Z,14.87
2022-10-31T22:34:07.234Z,14.83
2022-10-31T22:36:33.946Z,14.81
2022-10-31T22:39:01.227Z,14.79
2022-10-31T22:41:28.893Z,14.77
2022-10-31T22:43:56.522Z,14.73
2022-10-31T22:46:24.489Z,14.68
2022-10-31T22:48:55.562Z,14.68
2022-10-31T22:51:23.731Z,14.63
2022-10-31T22:53:50.646Z,14.60
2022-10-31T22:56:20.676Z,14.57
2022-10-31T22:58:47.706Z,14.53
2022-10-31T23:01:33.576Z,14.51
2022-10-31T23:04:01.108Z,14.50
2022-10-31T23:06:30.246Z,14.50
2022-10-31T23:08:57.490Z,14.47
2022-10-31T23:11:25.940Z,14.42
2022-10-31T23:14:08.960Z,14.41
2022-10-31T23:16:55.813Z,14.40
2022-10-31T23:19:23.866Z,14.40
2022-10-31T23:21:56.277Z,14.39
2022-10-31T23:24:25.792Z,14.33
2022-10-31T23:27:08.413Z,14.31
2022-10-31T23:29:36.738Z,14.29
2022-10-31T23:32:04.097Z,14.24
2022-10-31T23:34:30.860Z,14.21
2022-10-31T23:36:57.726Z,14.20
2022-10-31T23:39:25.259Z,14.18
2022-10-31T23:41:52.298Z,14.20
2022-10-31T23:44:19.030Z,14.16
2022-10-31T23:46:45.788Z,14.13
2022-10-31T23:49:12.696Z,14.13
2022-10-31T23:51:39.995Z,14.07
2022-10-31T23:54:07.013Z,14.04
2022-10-31T23:56:34.018Z,14.05
2022-10-31T23:59:00.941Z,13.98
